Weather observations for the past three days for
Jackson County Airport - Reynolds Field
| Date | Time (edt) | Wind (mph) | Vis. (mi.) | Weather | Sky Cond. | Temperature (ºF) | Relative Humidity | Wind Chill (°F) | Heat Index (°F) | Pressure | Precipitation (in) | ||||||
|---|---|---|---|---|---|---|---|---|---|---|---|---|---|---|---|---|---|
| Air | Dwpt | 6 hour | altimeter (in) | sea level (mb) | 1 hr | 3 hr | 6 hr | ||||||||||
| Max. | Min. | ||||||||||||||||
| 06 | 08:56 | NW 8 G 16 | 10.00 | Fair | CLR | 44.6 | 28.4 | 53% | 41 | 29.88 | 0.0 | ||||||
| 06 | 07:56 | NW 8 | 10.00 | Fair | CLR | 42.8 | 28.4 | 57% | 39 | 29.85 | 0.0 | ||||||
| 06 | 06:56 | NW 6 | 10.00 | Fair | CLR | 39.2 | 30.2 | 70% | 36 | 29.83 | 0.0 | ||||||
| 06 | 05:56 | W 3 | 10.00 | A Few Clouds | FEW110 | 44.1 | 28 | 53% | 29.83 | 1010.3 | |||||||
| 06 | 04:56 | NW 3 | 10.00 | Overcast | OVC100 | 45 | 28 | 52% | 29.81 | 1009.6 | |||||||
| 06 | 03:56 | NW 3 | 10.00 | Mostly Cloudy | SCT095 BKN110 | 45 | 28.9 | 54% | 29.8 | 1009.6 | |||||||
| 06 | 02:56 | W 5 | 10.00 | Overcast | OVC100 | 46 | 28.9 | 51% | 44 | 29.8 | 1009.6 | ||||||
| 06 | 01:56 | W 6 | 10.00 | Overcast | OVC095 | 46.9 | 28.9 | 50 | 46.9 | 50% | 45 | 29.81 | 1009.9 | ||||
| 06 | 00:56 | W 5 | 10.00 | Overcast | OVC100 | 46.9 | 28.9 | 50% | 45 | 29.8 | 1009.5 | ||||||
| 05 | 23:56 | W 5 | 10.00 | Overcast | OVC090 | 46.9 | 30.9 | 54% | 45 | 29.8 | 1009.4 | ||||||
| 05 | 22:56 | Calm | 10.00 | Overcast | OVC090 | 46.9 | 30 | 52% | 29.8 | 1009.4 | |||||||
| 05 | 21:56 | W 3 | 10.00 | Overcast | OVC095 | 48 | 28.9 | 48% | 29.79 | 1009.1 | |||||||
| 05 | 20:56 | W 5 | 10.00 | Overcast | OVC100 | 48.9 | 27 | 43% | 48 | 29.78 | 1008.5 | ||||||
| 05 | 19:56 | NW 10 | 10.00 | Overcast | OVC110 | 50 | 26.6 | 40% | 46 | 29.79 | 0.0 | ||||||
| 05 | 18:56 | NW 14 | 10.00 | Partly Cloudy | SCT110 | 51.8 | 24.8 | 35% | 29.77 | 0.0 | |||||||
| 05 | 17:56 | W 6 | 10.00 | A Few Clouds | FEW080 | 53.1 | 28.9 | 40% | 29.77 | 1008.1 | |||||||
| 05 | 16:56 | W 9 | 10.00 | Overcast | BKN075 OVC085 | 54 | 34 | 47% | 29.76 | 1007.9 | |||||||
| 05 | 15:56 | W 14 | 10.00 | Overcast | OVC070 | 53.6 | 33.8 | 47% | 29.77 | 0.0 | |||||||
| 05 | 14:56 | W 9 | 10.00 | Overcast | OVC080 | 53.1 | 37 | 55% | 29.77 | 1008.2 | |||||||
| 05 | 13:56 | SW 9 | 10.00 | Overcast | SCT032 SCT038 OVC080 | 53.1 | 41 | 55.9 | 48 | 64% | 29.77 | 1008.0 | 0.03 | ||||
| 05 | 12:56 | SW 7 | 10.00 | Mostly Cloudy | SCT050 BKN110 | 51.1 | 44.1 | 77% | 29.74 | 1007.3 | 0.01 | ||||||
| 05 | 11:56 | SW 9 | 10.00 | Light Rain | OVC075 | 48 | 42.1 | 80% | 44 | 29.76 | 1008.0 | 0.02 | |||||
| 05 | 10:56 | W 13 | 10.00 | Overcast | OVC085 | 48.2 | 39.2 | 71% | 43 | 29.76 | 0.0 | ||||||
| 05 | 09:56 | W 10 G 20 | 10.00 | Overcast | OVC085 | 54 | 37 | 53% | 29.72 | 1006.2 | |||||||
| 05 | 08:56 | W 7 | 10.00 | A Few Clouds | FEW120 | 55 | 37 | 51% | 29.67 | 1004.5 | |||||||
| 05 | 07:56 | SW 7 | 10.00 | Mostly Cloudy | BKN095 BKN120 | 53.1 | 39 | 55.9 | 53.1 | 59% | 29.66 | 1004.2 | |||||
| 05 | 06:56 | SW 10 | 10.00 | A Few Clouds | FEW095 | 54 | 50 | 87% | 29.64 | 1003.4 | |||||||
| 05 | 05:56 | SW 12 G 20 | 10.00 | Partly Cloudy | SCT080 | 54 | 52 | 93% | 29.62 | 1002.4 | |||||||
| 05 | 04:56 | SW 9 | 10.00 | Fair | CLR | 55 | 51.1 | 87% | 29.59 | 1001.7 | |||||||
| 05 | 03:56 | SW 14 | 10.00 | Fair | CLR | 55.9 | 51.1 | 84% | 29.58 | 1001.1 | |||||||
| 05 | 02:56 | SW 9 | 10.00 | Fair | CLR | 55.9 | 52 | 87% | 29.56 | 1000.4 | |||||||
| 05 | 01:56 | S 7 | 10.00 | Overcast | BKN080 OVC100 | 55.9 | 52 | 66 | 55.9 | 87% | 29.55 | 0.0 | 0.09 | ||||
| 05 | 00:56 | S 9 G 21 | 10.00 | Light Rain | BKN085 BKN110 | 57 | 52 | 83% | 29.54 | 0.0 | 0.01 | ||||||
| 04 | 23:56 | S 14 G 18 | 10.00 | Light Rain | FEW060 BKN075 OVC090 | 55.9 | 54 | 93% | 29.57 | 0.0 | 0.08 | ||||||
| 04 | 22:56 | SW 15 G 24 | 10.00 | A Few Clouds | FEW110 | 64.9 | 53.1 | 66% | 29.56 | 0.0 | |||||||
| 04 | 21:56 | SW 13 G 20 | 10.00 | Partly Cloudy | SCT110 | 66 | 52 | 61% | 29.56 | 0.0 | |||||||
| 04 | 20:56 | SW 16 G 23 | 10.00 | Mostly Cloudy | SCT085 BKN110 | 66.2 | 51.8 | 60% | 29.54 | 0.0 | |||||||
| 04 | 19:56 | SW 18 | 10.00 | Partly Cloudy | FEW070 SCT090 | 64.4 | 55.4 | 73% | 29.52 | 0.0 | |||||||
| 04 | 18:56 | SW 18 G 29 | 10.00 | Thunderstorm in Vicinity Light Rain | BKN070CB BKN090 OVC110 | 66.2 | 53.6 | 64% | 29.54 | 0.0 | |||||||
| 04 | 17:56 | SW 16 G 25 | 10.00 | Partly Cloudy | SCT065 | 75.2 | 51.8 | 44% | 78 | 29.51 | 0.0 | ||||||
| 04 | 16:56 | SW 16 G 37 | 10.00 | Mostly Cloudy | FEW070 BKN095 | 73.4 | 46.4 | 38% | 29.54 | 0.0 | |||||||
| 04 | 15:56 | SW 16 G 37 | 10.00 | Partly Cloudy | SCT080 SCT090 | 75.2 | 42.8 | 31% | 77 | 29.56 | 0.0 | ||||||
| 04 | 14:56 | SW 21 G 31 | 10.00 | Fair and Breezy | CLR | 75 | 41 | 29% | 77 | 29.57 | 0.0 | ||||||
| 04 | 11:56 | SW 13 G 24 | 10.00 | Fair | CLR | 69.8 | 42.8 | 38% | 29.63 | 0.0 | |||||||
| 04 | 10:56 | SW 10 | 10.00 | Fair | CLR | 64.4 | 44.6 | 49% | 29.65 | 0.0 | |||||||
| 04 | 09:56 | W 13 | 10.00 | Fair | CLR | 60.8 | 44.6 | 55% | 29.66 | 0.0 | |||||||
| 04 | 08:56 | SW 10 G 24 | 10.00 | Fair | CLR | 57.2 | 44.6 | 63% | 29.67 | 0.0 | |||||||
| 04 | 07:56 | SW 10 | 10.00 | Fair | CLR | 51.8 | 42.8 | 72% | 29.68 | 0.0 | |||||||
| 04 | 06:56 | SW 12 | 10.00 | Fair | CLR | 48.2 | 42.8 | 82% | 44 | 29.66 | 0.0 | ||||||
| 03 | 20:56 | S 17 | 10.00 | Overcast | OVC070 | 50 | 39.2 | 67% | 45 | 29.8 | 0.0 | ||||||
| 03 | 19:56 | SW 17 | 10.00 | Overcast | OVC070 | 51.8 | 39.2 | 62% | 29.81 | 0.0 | |||||||
| 03 | 18:56 | W 21 G 32 | 10.00 | Overcast and Breezy | OVC070 | 53.6 | 39.2 | 58% | 29.83 | 0.0 | |||||||
| 03 | 17:56 | W 21 G 32 | 10.00 | Overcast and Breezy | OVC070 | 55.4 | 39.2 | 55% | 29.83 | 0.0 | |||||||
| 03 | 16:56 | SW 21 G 35 | 10.00 | Mostly Cloudy and Breezy | BKN060 | 59 | 35.6 | 42% | 29.82 | 0.0 | |||||||
| 03 | 15:56 | SW 21 G 35 | 10.00 | Mostly Cloudy and Breezy | BKN060 | 62.6 | 35.6 | 37% | 29.83 | 0.0 | |||||||
| 03 | 14:56 | W 21 G 35 | 10.00 | Partly Cloudy and Breezy | SCT080 | 60.8 | 33.8 | 36% | 29.86 | 0.0 | |||||||
| 03 | 13:56 | W 17 G 35 | 10.00 | Partly Cloudy | SCT085 | 60.1 | 35.1 | 39% | 29.88 | 1012.2 | |||||||
| 03 | 12:56 | SW 23 G 33 | 10.00 | Mostly Cloudy and Breezy | BKN085 | 59 | 34 | 39% | 29.9 | 1013.0 | |||||||
| 03 | 11:56 | SW 16 G 23 | 10.00 | Overcast | OVC085 | 55.9 | 34 | 44% | 29.93 | 1013.9 | |||||||
| 03 | 10:56 | SW 15 G 21 | 10.00 | Overcast | OVC085 | 51.1 | 32 | 48% | 29.94 | 1014.6 | |||||||
| 03 | 09:56 | SW 16 G 23 | 10.00 | Overcast | OVC085 | 51.1 | 28 | 41% | 29.94 | 1014.5 | |||||||
| Date | Time (edt) | Wind (mph) | Vis. (mi.) | Weather | Sky Cond. | Air | Dwpt | Max. | Min. | Relative Humidity | Wind Chill (°F) | Heat Index (°F) | altimeter (in) | sea level (mb) | 1 hr | 3 hr | 6 hr |
| 6 hour | |||||||||||||||||
| Temperature (ºF) | Pressure | Precipitation (in) | |||||||||||||||